Time;durP1;ratioP1;P1;durP2;ratioP2;P2;SDS_P1;SDS_P2;PMS_P1;PMS_P2;Temp;Humidity;BMP_temperature;BMP_pressure;BME280_temperature;BME280_humidity;BME280_pressure;Samples;Min_cycle;Max_cycle;Signal;HPM_P1;HPM_P2
2024/02/13 00:01:54;;;;;;;23.05;11.73;;;4.10;99.90;;;;;;5010504;28;20022;-78
2024/02/13 00:04:20;;;;;;;22.00;12.00;;;4.10;99.90;;;;;;5078865;28;20028;-81
2024/02/13 00:06:46;;;;;;;20.27;12.57;;;4.20;99.90;;;;;;5087790;28;20030;-81
2024/02/13 00:09:16;;;;;;;26.92;13.10;;;4.10;99.90;;;;;;5079039;28;20037;-78
2024/02/13 00:11:41;;;;;;;25.13;12.20;;;4.20;99.90;;;;;;5078835;28;20038;-78
2024/02/13 00:14:08;;;;;;;23.38;12.75;;;4.20;99.90;;;;;;5010676;28;20083;-78
2024/02/13 00:16:37;;;;;;;22.98;12.13;;;4.20;99.90;;;;;;5010798;28;20460;-78
2024/02/13 00:19:03;;;;;;;21.58;12.77;;;4.10;99.90;;;;;;5078444;28;20044;-80
2024/02/13 00:21:31;;;;;;;23.80;12.50;;;4.10;99.90;;;;;;5079025;28;20045;-80
2024/02/13 00:23:57;;;;;;;20.17;11.35;;;4.10;99.90;;;;;;5010234;28;20029;-80
2024/02/13 00:26:23;;;;;;;23.75;12.77;;;4.10;99.90;;;;;;5010943;28;20022;-78
2024/02/13 00:28:49;;;;;;;22.48;11.90;;;4.10;99.90;;;;;;5079961;28;20029;-77
2024/02/13 00:31:14;;;;;;;21.38;10.95;;;4.10;99.90;;;;;;5085697;28;20045;-81
2024/02/13 00:33:40;;;;;;;22.60;12.45;;;4.10;99.90;;;;;;5078150;28;20143;-78
2024/02/13 00:36:09;;;;;;;23.83;13.07;;;4.10;99.90;;;;;;5078514;28;20030;-80
2024/02/13 00:38:35;;;;;;;17.95;10.40;;;4.10;99.90;;;;;;5039658;28;1197950;-78
2024/02/13 00:41:04;;;;;;;19.65;11.48;;;4.00;99.90;;;;;;5011365;28;20026;-80
2024/02/13 00:43:30;;;;;;;21.75;11.05;;;4.00;99.90;;;;;;5079179;28;20026;-80
2024/02/13 00:45:57;;;;;;;18.55;10.43;;;4.10;99.90;;;;;;5010233;28;20053;-80
2024/02/13 00:48:23;;;;;;;19.52;9.77;;;4.00;99.90;;;;;;5011278;28;20014;-80
2024/02/13 00:50:49;;;;;;;20.70;9.43;;;4.00;99.90;;;;;;5079128;28;20041;-78
2024/02/13 00:53:16;;;;;;;17.13;9.77;;;4.00;99.90;;;;;;5078993;28;20616;-79
2024/02/13 00:55:45;;;;;;;19.48;11.32;;;3.90;99.90;;;;;;5095290;28;20026;-79
2024/02/13 00:58:11;;;;;;;16.20;9.65;;;3.90;99.90;;;;;;5078985;28;20159;-81
2024/02/13 01:00:39;;;;;;;16.48;10.05;;;3.90;99.90;;;;;;5078191;28;20064;-80
2024/02/13 01:03:05;;;;;;;14.15;8.52;;;3.80;99.90;;;;;;5079039;28;20018;-80
2024/02/13 01:05:32;;;;;;;20.92;10.77;;;3.80;99.90;;;;;;5011164;28;20061;-80
2024/02/13 01:07:58;;;;;;;15.07;9.48;;;3.80;99.90;;;;;;5079250;28;20596;-80
2024/02/13 01:10:24;;;;;;;15.95;9.32;;;3.80;99.90;;;;;;5078865;28;20110;-81
2024/02/13 01:12:50;;;;;;;14.63;8.95;;;3.70;99.90;;;;;;5095412;28;20117;-81
2024/02/13 01:15:16;;;;;;;16.52;8.77;;;3.70;99.90;;;;;;5095609;28;20470;-80
2024/02/13 01:17:42;;;;;;;19.15;9.50;;;3.70;99.90;;;;;;5010929;28;20054;-81
2024/02/13 01:20:12;;;;;;;15.70;8.00;;;3.70;99.90;;;;;;5078666;28;20028;-79
2024/02/13 01:22:39;;;;;;;16.45;9.18;;;3.70;99.90;;;;;;5010923;28;20034;-80
2024/02/13 01:25:05;;;;;;;17.35;9.43;;;3.70;99.90;;;;;;5078764;28;20026;-80
2024/02/13 01:27:33;;;;;;;17.95;8.95;;;3.70;99.90;;;;;;5010705;28;20038;-80
2024/02/13 01:29:59;;;;;;;17.08;9.15;;;3.70;99.90;;;;;;5095087;28;20109;-80
2024/02/13 01:32:25;;;;;;;19.10;10.15;;;3.70;99.90;;;;;;5010584;28;20108;-78
2024/02/13 01:34:51;;;;;;;20.35;9.90;;;3.70;99.90;;;;;;5010636;28;20035;-79
2024/02/13 01:37:17;;;;;;;17.65;9.23;;;3.70;99.90;;;;;;5077494;28;20030;-81
2024/02/13 01:39:42;;;;;;;16.73;9.38;;;3.70;99.90;;;;;;5094762;28;20047;-78
2024/02/13 01:42:11;;;;;;;24.13;10.68;;;3.70;99.90;;;;;;5078070;28;20467;-79
2024/02/13 01:44:37;;;;;;;15.57;9.68;;;3.60;99.90;;;;;;5009091;28;20075;-81
2024/02/13 01:47:03;;;;;;;14.73;9.02;;;3.50;99.90;;;;;;5078267;28;20022;-80
2024/02/13 01:49:30;;;;;;;16.42;9.70;;;3.50;99.90;;;;;;5078264;28;20018;-80
2024/02/13 01:51:58;;;;;;;21.17;11.32;;;3.50;99.90;;;;;;5078235;28;20045;-78
2024/02/13 01:54:26;;;;;;;16.38;9.50;;;3.50;99.90;;;;;;5010255;28;20030;-78
2024/02/13 01:56:52;;;;;;;18.25;10.32;;;3.50;99.90;;;;;;5010467;28;20044;-81
2024/02/13 01:59:18;;;;;;;20.10;11.10;;;3.40;99.90;;;;;;5078254;28;20061;-81
2024/02/13 02:01:44;;;;;;;23.13;11.68;;;3.40;99.90;;;;;;5077361;28;20360;-80
2024/02/13 02:04:11;;;;;;;19.33;11.55;;;3.40;99.90;;;;;;5077414;28;20029;-81
2024/02/13 02:06:37;;;;;;;19.13;11.80;;;3.40;99.90;;;;;;5077808;28;20029;-78
2024/02/13 02:09:06;;;;;;;18.42;11.15;;;3.30;99.90;;;;;;5009908;28;20038;-80
2024/02/13 02:11:32;;;;;;;19.90;10.65;;;3.30;99.90;;;;;;5077886;28;20036;-78
2024/02/13 02:13:58;;;;;;;19.52;10.50;;;3.30;99.90;;;;;;5077616;28;20049;-80
2024/02/13 02:16:24;;;;;;;18.52;11.05;;;3.30;99.90;;;;;;5010143;28;20067;-78
2024/02/13 02:18:50;;;;;;;26.25;11.27;;;3.20;99.90;;;;;;5077727;28;20364;-78
2024/02/13 02:21:17;;;;;;;19.05;11.00;;;3.20;99.90;;;;;;5078010;28;20018;-80
2024/02/13 02:23:42;;;;;;;17.95;11.20;;;3.20;99.90;;;;;;4993388;28;20049;-79
2024/02/13 02:26:08;;;;;;;25.13;11.50;;;3.20;99.90;;;;;;5000589;28;20022;-78
2024/02/13 02:28:35;;;;;;;20.83;11.65;;;3.10;99.90;;;;;;5009542;28;20084;-78
2024/02/13 02:31:01;;;;;;;17.10;10.68;;;3.10;99.90;;;;;;5076746;28;20518;-80
2024/02/13 02:33:26;;;;;;;24.80;12.57;;;3.10;99.90;;;;;;5077451;28;20018;-78
2024/02/13 02:35:53;;;;;;;25.17;11.77;;;3.00;99.90;;;;;;5010050;28;20042;-78
2024/02/13 02:38:20;;;;;;;25.67;12.45;;;3.00;99.90;;;;;;5077205;28;20058;-78
2024/02/13 02:40:47;;;;;;;21.10;11.32;;;3.00;99.90;;;;;;5009661;28;20029;-78
2024/02/13 02:43:13;;;;;;;23.05;12.60;;;3.00;99.90;;;;;;4996790;28;20027;-80
2024/02/13 02:45:39;;;;;;;24.25;13.02;;;2.90;99.90;;;;;;5077636;28;20499;-80
2024/02/13 02:48:05;;;;;;;27.48;14.15;;;2.90;99.90;;;;;;5009681;28;20021;-79
2024/02/13 02:50:32;;;;;;;23.92;12.70;;;2.90;99.90;;;;;;5077635;28;20050;-80
2024/02/13 02:52:57;;;;;;;20.08;11.55;;;2.90;99.90;;;;;;5009399;28;20026;-78
2024/02/13 02:55:23;;;;;;;20.60;11.35;;;2.80;99.90;;;;;;5009816;28;20079;-79
2024/02/13 02:57:50;;;;;;;21.92;11.30;;;2.80;99.90;;;;;;5077589;28;20032;-78
2024/02/13 03:00:19;;;;;;;20.98;11.90;;;2.80;99.90;;;;;;5086403;28;20022;-77
2024/02/13 03:02:46;;;;;;;19.70;10.20;;;2.80;99.90;;;;;;5009133;28;20387;-80
2024/02/13 03:05:12;;;;;;;18.98;10.15;;;2.80;99.90;;;;;;5077438;28;20029;-77
2024/02/13 03:07:38;;;;;;;21.42;10.88;;;2.70;99.90;;;;;;5076731;28;20029;-79
2024/02/13 03:10:10;;;;;;;18.60;10.07;;;2.70;99.90;;;;;;5077326;28;20026;-77
2024/02/13 03:12:36;;;;;;;22.23;12.00;;;2.70;99.90;;;;;;5077012;28;20045;-79
2024/02/13 03:15:02;;;;;;;22.20;10.32;;;2.60;99.90;;;;;;5077432;28;20022;-79
2024/02/13 03:17:28;;;;;;;18.70;11.60;;;2.60;99.90;;;;;;5009349;28;20137;-78
2024/02/13 03:19:53;;;;;;;20.40;11.75;;;2.60;99.90;;;;;;5009455;28;20499;-78
2024/02/13 03:22:22;;;;;;;23.83;11.95;;;2.50;99.90;;;;;;5009297;28;20014;-79
2024/02/13 03:24:48;;;;;;;17.75;9.68;;;2.50;99.90;;;;;;5078087;28;20033;-78
2024/02/13 03:27:15;;;;;;;17.90;10.13;;;2.40;99.90;;;;;;5012721;28;20022;-81
2024/02/13 03:29:41;;;;;;;21.00;9.68;;;2.40;99.90;;;;;;5012591;28;20386;-78
2024/02/13 03:32:07;;;;;;;16.85;9.82;;;2.40;99.90;;;;;;5012349;28;20105;-79
2024/02/13 03:34:32;;;;;;;17.95;9.93;;;2.30;99.90;;;;;;5080759;28;20105;-79
2024/02/13 03:36:58;;;;;;;20.38;10.75;;;2.30;99.90;;;;;;5093886;28;20022;-80
2024/02/13 03:39:24;;;;;;;18.70;10.93;;;2.20;99.90;;;;;;5004852;28;20049;-78
2024/02/13 03:41:50;;;;;;;17.40;9.98;;;2.20;99.90;;;;;;5067895;28;20025;-78
2024/02/13 03:44:16;;;;;;;26.77;14.13;;;2.20;99.90;;;;;;5095480;28;20083;-78
2024/02/13 03:46:42;;;;;;;22.40;13.65;;;2.20;99.90;;;;;;5004743;28;20027;-78
2024/02/13 03:49:08;;;;;;;21.65;12.30;;;2.10;99.90;;;;;;5005124;28;20033;-78
2024/02/13 03:51:40;;;;;;;28.85;14.30;;;2.10;99.90;;;;;;5075539;28;20070;-77
2024/02/13 03:54:08;;;;;;;27.20;13.07;;;2.10;99.90;;;;;;5080087;28;20375;-80
2024/02/13 03:56:37;;;;;;;28.60;12.98;;;2.00;99.90;;;;;;5012009;28;20022;-80
2024/02/13 03:59:03;;;;;;;27.20;13.25;;;2.00;99.90;;;;;;5080148;28;20018;-78
2024/02/13 04:01:28;;;;;;;22.05;11.80;;;1.90;99.90;;;;;;5069862;28;20113;-79
2024/02/13 04:03:54;;;;;;;25.40;12.07;;;1.90;99.90;;;;;;5080282;28;20162;-78
2024/02/13 04:06:20;;;;;;;19.05;11.20;;;1.90;99.90;;;;;;5079951;28;20033;-78
2024/02/13 04:08:45;;;;;;;23.85;12.63;;;1.80;99.90;;;;;;5008753;28;20030;-78
2024/02/13 04:11:12;;;;;;;23.52;13.40;;;1.80;99.90;;;;;;5080045;28;20491;-78
2024/02/13 04:13:39;;;;;;;29.33;13.75;;;1.70;99.90;;;;;;5079798;28;20025;-78
2024/02/13 04:16:07;;;;;;;25.38;13.07;;;1.70;99.90;;;;;;5011075;28;20476;-79
2024/02/13 04:18:35;;;;;;;28.75;13.20;;;1.60;99.90;;;;;;5079857;28;20041;-78
2024/02/13 04:21:01;;;;;;;25.63;13.30;;;1.60;99.90;;;;;;5079519;28;20040;-79
2024/02/13 04:23:27;;;;;;;29.05;13.38;;;1.50;99.90;;;;;;5078617;28;20030;-78
2024/02/13 04:25:54;;;;;;;31.08;14.50;;;1.50;99.90;;;;;;5000459;28;20391;-80
2024/02/13 04:28:22;;;;;;;37.00;15.68;;;1.50;99.90;;;;;;5079610;28;20014;-79
2024/02/13 04:30:48;;;;;;;33.45;14.85;;;1.40;99.90;;;;;;5011303;28;20402;-78
2024/02/13 04:33:14;;;;;;;29.15;13.15;;;1.30;99.90;;;;;;5078136;28;20095;-79
2024/02/13 04:35:40;;;;;;;26.83;14.50;;;1.30;99.90;;;;;;5076088;28;20022;-78
2024/02/13 04:38:06;;;;;;;43.88;18.42;;;1.20;99.90;;;;;;5079093;28;20060;-79
2024/02/13 04:40:35;;;;;;;38.28;17.90;;;1.20;99.90;;;;;;5006714;28;20019;-78
2024/02/13 04:43:00;;;;;;;38.90;18.20;;;1.20;99.90;;;;;;5071566;28;20076;-78
2024/02/13 04:45:27;;;;;;;36.80;17.10;;;1.20;99.90;;;;;;5011378;28;20022;-79
2024/02/13 04:47:52;;;;;;;43.80;16.15;;;1.10;99.90;;;;;;5079389;28;20018;-78
2024/02/13 04:50:18;;;;;;;42.95;17.33;;;1.10;99.90;;;;;;5079460;28;20037;-78
2024/02/13 04:52:44;;;;;;;50.10;16.75;;;1.10;99.90;;;;;;5079043;28;20498;-79
2024/02/13 04:55:10;;;;;;;52.67;17.80;;;1.10;99.90;;;;;;5078943;28;20147;-79
2024/02/13 04:57:36;;;;;;;46.55;18.70;;;1.10;99.90;;;;;;5011190;28;20044;-79
2024/02/13 05:00:13;;;;;;;42.33;19.73;;;1.10;99.90;;;;;;5078696;28;20033;-79
2024/02/13 05:02:42;;;;;;;42.58;18.48;;;1.20;99.90;;;;;;5079425;28;20361;-79
2024/02/13 05:07:52;;;;;;;48.17;19.55;;;1.30;99.90;;;;;;5011123;28;20118;-79
2024/02/13 05:10:17;;;;;;;38.97;17.63;;;1.30;99.90;;;;;;5077292;28;20076;-79
2024/02/13 05:12:43;;;;;;;38.70;18.80;;;1.40;99.90;;;;;;5073278;28;20030;-79
2024/02/13 05:15:10;;;;;;;35.15;15.75;;;1.50;99.90;;;;;;5011136;28;20051;-79
2024/02/13 05:17:36;;;;;;;45.45;16.90;;;1.50;99.90;;;;;;5085348;28;20029;-79
2024/02/13 05:20:02;;;;;;;38.55;16.75;;;1.60;99.90;;;;;;5011019;28;20010;-79
2024/02/13 05:22:28;;;;;;;33.13;15.25;;;1.70;99.90;;;;;;5010747;28;20018;-78
2024/02/13 05:24:54;;;;;;;34.35;16.73;;;1.80;99.90;;;;;;5011186;28;20026;-78
2024/02/13 05:27:19;;;;;;;34.00;17.00;;;1.90;99.90;;;;;;5078228;28;20033;-78
2024/02/13 05:29:45;;;;;;;36.60;16.70;;;2.00;99.90;;;;;;5078451;28;20030;-79
2024/02/13 05:32:11;;;;;;;40.70;16.60;;;2.10;99.90;;;;;;5078204;28;20079;-77
2024/02/13 05:34:37;;;;;;;35.72;18.58;;;2.10;99.90;;;;;;5010829;28;20504;-77
2024/02/13 05:37:02;;;;;;;34.88;17.15;;;2.20;99.90;;;;;;5010498;28;20045;-79
2024/02/13 05:39:28;;;;;;;40.53;18.52;;;2.20;99.90;;;;;;4999944;28;20053;-77
2024/02/13 05:41:55;;;;;;;47.53;20.08;;;2.30;99.90;;;;;;5010472;28;20026;-79
2024/02/13 05:44:21;;;;;;;49.65;17.63;;;2.30;99.90;;;;;;5010055;28;20033;-77
2024/02/13 05:46:47;;;;;;;58.28;26.55;;;2.40;99.90;;;;;;5077355;28;20154;-77
2024/02/13 05:49:12;;;;;;;141.30;52.75;;;2.40;99.90;;;;;;5008865;28;20093;-77
2024/02/13 05:51:38;;;;;;;137.30;45.75;;;2.50;99.90;;;;;;5080925;28;20034;-79
2024/02/13 05:54:04;;;;;;;140.70;47.55;;;2.50;99.90;;;;;;5078223;28;20054;-77
2024/02/13 05:56:35;;;;;;;62.30;25.88;;;2.50;99.90;;;;;;5010281;28;20021;-80
2024/02/13 05:59:03;;;;;;;57.97;22.75;;;2.50;99.90;;;;;;5077882;28;20018;-80
2024/02/13 06:01:29;;;;;;;50.40;23.30;;;2.60;99.90;;;;;;5076378;28;20024;-78
2024/02/13 06:03:57;;;;;;;54.97;22.90;;;2.70;99.90;;;;;;5077601;28;20072;-79
2024/02/13 06:06:24;;;;;;;288.98;101.75;;;2.70;99.90;;;;;;5077316;28;20034;-79
2024/02/13 06:08:53;;;;;;;100.88;38.47;;;2.80;99.90;;;;;;5084083;28;20107;-78
2024/02/13 06:11:19;;;;;;;59.85;24.17;;;2.90;99.90;;;;;;5045614;28;20113;-79
2024/02/13 06:13:45;;;;;;;47.75;20.88;;;2.90;99.90;;;;;;5077432;28;20483;-80
2024/02/13 06:16:14;;;;;;;46.92;20.45;;;2.90;99.90;;;;;;5006399;28;20132;-80
2024/02/13 06:18:40;;;;;;;44.10;19.35;;;3.00;99.90;;;;;;5087674;28;20041;-80
2024/02/13 06:21:05;;;;;;;43.58;19.05;;;3.10;99.90;;;;;;5002456;28;20022;-79
2024/02/13 06:23:31;;;;;;;88.85;35.83;;;3.10;99.90;;;;;;4991842;28;20860;-78
2024/02/13 06:25:58;;;;;;;52.10;23.98;;;3.10;99.90;;;;;;4999871;28;20067;-78
2024/02/13 06:28:23;;;;;;;40.70;18.63;;;3.20;99.90;;;;;;5006663;28;20041;-79
2024/02/13 06:30:49;;;;;;;43.15;19.20;;;3.20;99.90;;;;;;5071127;28;20391;-78
2024/02/13 06:33:15;;;;;;;49.75;23.35;;;3.30;99.90;;;;;;5065464;28;20071;-79
2024/02/13 06:35:41;;;;;;;48.22;20.77;;;3.20;99.90;;;;;;5066067;28;20040;-79
2024/02/13 06:38:06;;;;;;;46.05;21.83;;;3.30;99.90;;;;;;5080806;28;20049;-79
2024/02/13 06:40:34;;;;;;;45.17;21.63;;;3.40;99.90;;;;;;5074359;28;20395;-78
2024/02/13 06:43:00;;;;;;;44.10;19.45;;;3.40;99.90;;;;;;5077140;28;20112;-77
2024/02/13 06:45:27;;;;;;;47.10;20.27;;;3.40;99.90;;;;;;5003252;28;20026;-79
2024/02/13 06:47:53;;;;;;;34.28;17.15;;;3.40;99.90;;;;;;5077241;28;20030;-78
2024/02/13 06:50:19;;;;;;;48.78;23.10;;;3.40;99.90;;;;;;5004102;28;20034;-79
2024/02/13 06:52:50;;;;;;;36.58;18.45;;;3.40;99.90;;;;;;5073450;28;20034;-80
2024/02/13 06:55:16;;;;;;;81.10;28.45;;;3.50;99.90;;;;;;5075652;28;20026;-79
2024/02/13 06:57:41;;;;;;;36.28;18.73;;;3.50;99.90;;;;;;5007736;28;20026;-78
2024/02/13 07:00:13;;;;;;;36.35;17.77;;;3.50;99.90;;;;;;4994449;28;20388;-79
2024/02/13 07:02:42;;;;;;;35.55;16.13;;;3.50;99.90;;;;;;4993166;28;20140;-78
2024/02/13 07:05:09;;;;;;;34.80;19.25;;;3.50;99.90;;;;;;5000533;28;20023;-78
2024/02/13 07:07:36;;;;;;;37.75;17.38;;;3.60;99.90;;;;;;5004211;28;20022;-78
2024/02/13 07:10:05;;;;;;;35.75;17.38;;;3.60;99.90;;;;;;5078437;28;20026;-79
2024/02/13 07:12:31;;;;;;;33.40;16.85;;;3.60;99.90;;;;;;5072320;28;20121;-79
2024/02/13 07:14:57;;;;;;;100.13;42.30;;;3.70;99.90;;;;;;5074471;28;20702;-79
2024/02/13 07:17:23;;;;;;;67.68;27.42;;;3.70;99.90;;;;;;4995685;28;20042;-79
2024/02/13 07:19:50;;;;;;;33.33;16.70;;;3.70;99.90;;;;;;5001737;28;20036;-78
2024/02/13 07:22:17;;;;;;;34.17;17.30;;;3.70;99.90;;;;;;5060993;28;20042;-79
2024/02/13 07:24:43;;;;;;;40.28;19.10;;;3.80;99.90;;;;;;5082318;28;20028;-78
2024/02/13 07:27:09;;;;;;;32.75;16.67;;;3.80;99.90;;;;;;5010909;28;20042;-79
2024/02/13 07:29:39;;;;;;;37.72;17.23;;;3.80;99.90;;;;;;5011339;28;20117;-78
2024/02/13 07:32:09;;;;;;;47.33;20.83;;;3.90;99.90;;;;;;5002063;28;20453;-80
2024/02/13 07:34:38;;;;;;;34.35;16.92;;;3.90;99.90;;;;;;5000235;28;20114;-79
2024/02/13 07:37:08;;;;;;;29.80;15.10;;;3.90;99.90;;;;;;4996825;28;20035;-79
2024/02/13 07:39:34;;;;;;;29.77;15.27;;;3.90;99.90;;;;;;5075781;28;20038;-79
2024/02/13 07:42:01;;;;;;;33.55;15.73;;;4.00;99.90;;;;;;5075094;28;20059;-79
2024/02/13 07:44:29;;;;;;;29.75;15.13;;;3.90;99.90;;;;;;5075267;28;20113;-78
2024/02/13 07:46:56;;;;;;;25.65;12.23;;;4.00;99.90;;;;;;5064030;28;20049;-78
2024/02/13 07:49:22;;;;;;;22.60;13.07;;;4.00;99.90;;;;;;5077509;28;20030;-78
2024/02/13 07:51:48;;;;;;;23.63;12.98;;;4.00;99.90;;;;;;5066058;28;20758;-78
2024/02/13 07:54:14;;;;;;;24.60;13.27;;;4.10;99.90;;;;;;5068979;28;20042;-78
2024/02/13 07:56:41;;;;;;;24.70;13.55;;;4.10;99.90;;;;;;4999681;28;20030;-79
2024/02/13 07:59:07;;;;;;;25.63;13.63;;;4.20;99.90;;;;;;5079198;28;20528;-78
2024/02/13 08:01:33;;;;;;;21.02;11.90;;;4.10;99.90;;;;;;5000874;28;20523;-78
2024/02/13 08:04:00;;;;;;;23.30;12.45;;;4.20;99.90;;;;;;5075684;28;20511;-79
2024/02/13 08:06:29;;;;;;;20.88;11.30;;;4.20;99.90;;;;;;5068177;28;20026;-80
2024/02/13 08:08:55;;;;;;;20.27;11.23;;;4.20;99.90;;;;;;5078898;28;20073;-79
2024/02/13 08:11:21;;;;;;;19.77;11.27;;;4.30;99.90;;;;;;5075104;28;20464;-79
2024/02/13 08:13:47;;;;;;;23.23;12.20;;;4.40;99.90;;;;;;4993484;28;20037;-79
2024/02/13 08:16:14;;;;;;;22.83;12.88;;;4.40;99.90;;;;;;5069864;28;20022;-79
2024/02/13 08:18:43;;;;;;;25.27;12.40;;;4.50;99.90;;;;;;5074242;28;20464;-78
2024/02/13 08:21:08;;;;;;;26.63;14.40;;;4.50;99.90;;;;;;5003524;28;20022;-78
2024/02/13 08:23:34;;;;;;;31.02;13.85;;;4.60;99.90;;;;;;5077106;28;20037;-78
2024/02/13 08:25:59;;;;;;;31.20;14.60;;;4.60;99.90;;;;;;5078444;28;20510;-78
2024/02/13 08:28:26;;;;;;;19.08;11.38;;;4.60;99.90;;;;;;5075714;28;20403;-79
2024/02/13 08:30:53;;;;;;;22.10;12.30;;;4.70;99.90;;;;;;5002999;28;20044;-78
2024/02/13 08:33:19;;;;;;;23.38;12.68;;;4.80;99.90;;;;;;5077348;28;20048;-78
2024/02/13 08:35:46;;;;;;;21.80;10.68;;;4.70;99.90;;;;;;5078402;28;20017;-77
2024/02/13 08:38:12;;;;;;;20.65;11.85;;;4.70;99.90;;;;;;5004753;28;20055;-78
2024/02/13 08:40:37;;;;;;;20.30;11.32;;;4.70;99.90;;;;;;4991079;28;20029;-79
2024/02/13 08:43:04;;;;;;;25.48;12.77;;;4.70;99.90;;;;;;5073821;28;21262;-79
2024/02/13 08:45:30;;;;;;;21.05;12.98;;;4.70;99.90;;;;;;4997436;28;20023;-78
2024/02/13 08:48:01;;;;;;;20.17;11.35;;;4.70;99.90;;;;;;5004759;28;20381;-78
2024/02/13 08:50:27;;;;;;;20.85;11.68;;;4.70;99.90;;;;;;5070919;28;20113;-78
2024/02/13 08:52:53;;;;;;;22.08;12.68;;;4.80;99.90;;;;;;5067813;28;20052;-78
2024/02/13 08:55:18;;;;;;;22.02;11.73;;;4.80;99.90;;;;;;5077123;28;20022;-78
2024/02/13 08:57:44;;;;;;;21.33;11.45;;;4.80;99.90;;;;;;5009689;28;20576;-78
2024/02/13 09:00:11;;;;;;;22.15;11.68;;;4.80;99.90;;;;;;5065729;28;20014;-78
2024/02/13 09:02:37;;;;;;;20.35;10.98;;;4.90;99.90;;;;;;4998123;28;20464;-79
2024/02/13 09:05:03;;;;;;;21.52;12.27;;;4.90;99.90;;;;;;5000699;28;20018;-79
2024/02/13 09:07:30;;;;;;;17.98;10.88;;;5.00;99.90;;;;;;4995944;28;20022;-79
2024/02/13 09:09:55;;;;;;;20.88;11.55;;;5.00;99.90;;;;;;5061680;28;20018;-79
2024/02/13 09:12:23;;;;;;;17.98;10.30;;;5.20;99.90;;;;;;5067145;28;20125;-79
2024/02/13 09:14:49;;;;;;;22.45;11.95;;;5.30;99.90;;;;;;5001675;28;20034;-79
2024/02/13 09:17:15;;;;;;;18.38;11.15;;;5.40;99.90;;;;;;5002954;28;20394;-79
2024/02/13 09:19:42;;;;;;;16.38;9.02;;;5.40;99.90;;;;;;5069644;28;20483;-79
2024/02/13 09:22:13;;;;;;;16.25;9.45;;;5.50;99.90;;;;;;5002645;28;20014;-78
2024/02/13 09:24:43;;;;;;;17.45;9.32;;;5.50;99.90;;;;;;5076988;28;20030;-78
2024/02/13 09:27:10;;;;;;;21.77;10.38;;;5.60;99.90;;;;;;5002992;28;20029;-78
2024/02/13 09:29:36;;;;;;;14.75;9.30;;;5.70;99.90;;;;;;5071329;28;20087;-78
2024/02/13 09:32:02;;;;;;;13.05;8.32;;;5.70;99.90;;;;;;5083349;28;20034;-78
2024/02/13 09:34:28;;;;;;;20.13;8.27;;;5.80;99.90;;;;;;5084006;28;20045;-79
2024/02/13 09:36:54;;;;;;;12.85;7.70;;;5.90;99.90;;;;;;5002395;28;20034;-78
2024/02/13 09:39:19;;;;;;;9.85;7.65;;;5.90;99.90;;;;;;5062651;28;20095;-79
2024/02/13 09:41:45;;;;;;;17.55;8.88;;;6.00;99.90;;;;;;4992185;28;20019;-79
2024/02/13 09:44:12;;;;;;;12.05;6.93;;;6.10;99.90;;;;;;5074572;28;20122;-79
2024/02/13 09:46:40;;;;;;;13.70;9.93;;;6.10;99.90;;;;;;5076251;28;20025;-79
2024/02/13 09:49:09;;;;;;;7.40;5.53;;;6.20;99.90;;;;;;5001445;28;20042;-79
2024/02/13 09:51:37;;;;;;;17.13;9.27;;;6.20;99.90;;;;;;4995938;28;20503;-79
2024/02/13 09:54:04;;;;;;;11.20;7.57;;;6.20;99.90;;;;;;5071162;28;20061;-78
2024/02/13 09:56:32;;;;;;;9.30;6.20;;;6.30;99.90;;;;;;5076723;28;20032;-81
2024/02/13 09:58:59;;;;;;;10.57;4.70;;;6.30;99.90;;;;;;5066299;28;20365;-80
2024/02/13 10:01:25;;;;;;;5.50;4.40;;;6.30;97.70;;;;;;5076822;28;20064;-81
2024/02/13 10:03:52;;;;;;;6.13;3.58;;;6.20;91.20;;;;;;5064511;28;20065;-82
2024/02/13 10:06:18;;;;;;;5.85;3.80;;;6.30;88.10;;;;;;5063342;28;20027;-81
2024/02/13 10:08:49;;;;;;;7.10;4.18;;;6.30;86.40;;;;;;5068796;28;20041;-82
2024/02/13 10:11:16;;;;;;;5.88;4.07;;;6.50;86.20;;;;;;5003416;28;20066;-80
2024/02/13 10:13:42;;;;;;;9.52;4.90;;;6.50;87.00;;;;;;5075645;28;20466;-83
2024/02/13 10:16:23;;;;;;;5.90;3.80;;;6.40;84.40;;;;;;5063145;28;20018;-83
2024/02/13 10:18:54;;;;;;;6.70;4.45;;;6.50;84.00;;;;;;5007654;28;20030;-79
2024/02/13 10:21:27;;;;;;;8.52;4.28;;;6.80;87.90;;;;;;5075379;28;20018;-79
2024/02/13 10:24:04;;;;;;;4.13;3.40;;;7.00;86.60;;;;;;5070657;28;20042;-80
2024/02/13 10:26:30;;;;;;;5.40;3.90;;;6.90;74.80;;;;;;5003208;28;20030;-83
2024/02/13 10:28:58;;;;;;;4.78;2.92;;;6.90;74.70;;;;;;5070452;28;20082;-83
2024/02/13 10:31:25;;;;;;;5.30;3.03;;;7.00;73.50;;;;;;5008770;28;20040;-83
2024/02/13 10:33:51;;;;;;;3.78;2.33;;;7.00;73.30;;;;;;5007936;28;20080;-79
2024/02/13 10:36:17;;;;;;;4.22;2.72;;;7.10;74.60;;;;;;5006910;28;20018;-80
2024/02/13 10:38:47;;;;;;;4.30;2.53;;;7.00;73.20;;;;;;5008477;28;20492;-79
2024/02/13 10:41:25;;;;;;;2.95;2.70;;;7.00;72.20;;;;;;5079651;28;20042;-79
2024/02/13 10:43:52;;;;;;;6.28;2.90;;;6.90;70.70;;;;;;5076737;28;20484;-79
2024/02/13 10:46:23;;;;;;;7.72;3.15;;;6.80;70.50;;;;;;5006592;28;20421;-79
2024/02/13 10:49:23;;;;;;;4.13;3.03;;;6.80;71.20;;;;;;5087819;28;20611;-79
2024/02/13 10:51:49;;;;;;;2.72;2.22;;;6.80;72.10;;;;;;5080724;28;21133;-79
2024/02/13 10:54:16;;;;;;;2.80;2.47;;;6.80;71.40;;;;;;5083214;28;20030;-79
2024/02/13 10:56:42;;;;;;;2.80;2.58;;;6.80;71.50;;;;;;5004763;28;20505;-79
2024/02/13 10:59:09;;;;;;;5.38;3.55;;;6.80;72.40;;;;;;5080316;28;20487;-78
2024/02/13 11:01:35;;;;;;;7.35;3.28;;;6.80;73.50;;;;;;5004702;28;20160;-79
2024/02/13 11:04:04;;;;;;;4.88;3.03;;;6.80;73.60;;;;;;5071921;28;20105;-79
2024/02/13 11:06:32;;;;;;;7.95;3.72;;;6.70;74.10;;;;;;5080919;28;20067;-79
2024/02/13 11:08:58;;;;;;;6.20;4.30;;;6.70;74.30;;;;;;5064740;28;20019;-81
2024/02/13 11:11:25;;;;;;;6.15;3.80;;;6.60;73.80;;;;;;5070573;28;20578;-80
2024/02/13 11:13:51;;;;;;;7.15;3.95;;;6.60;74.00;;;;;;5098158;28;20082;-84
2024/02/13 11:16:20;;;;;;;4.40;2.45;;;6.60;74.00;;;;;;5081339;28;20535;-85
2024/02/13 11:18:51;;;;;;;2.28;1.98;;;6.60;69.50;;;;;;5003955;28;20116;-84
2024/02/13 11:21:24;;;;;;;3.30;2.38;;;6.60;71.30;;;;;;5001928;28;20094;-84
2024/02/13 11:24:00;;;;;;;3.03;2.67;;;6.70;72.90;;;;;;5011649;28;20053;-84
2024/02/13 11:26:34;;;;;;;2.60;2.40;;;6.80;73.90;;;;;;5087352;28;20030;-84
2024/02/13 11:29:10;;;;;;;3.22;2.15;;;6.90;74.40;;;;;;5078425;28;20694;-84
2024/02/13 11:31:36;;;;;;;3.35;2.08;;;6.90;72.20;;;;;;5066418;28;20042;-84
2024/02/13 11:34:08;;;;;;;3.55;2.85;;;6.90;72.90;;;;;;5078523;28;20406;-85
2024/02/13 11:36:34;;;;;;;4.25;2.80;;;6.80;72.70;;;;;;5010497;28;20045;-84
2024/02/13 11:39:06;;;;;;;5.65;3.40;;;6.80;74.70;;;;;;5010516;28;20487;-84
2024/02/13 11:41:34;;;;;;;4.10;3.10;;;6.80;75.20;;;;;;5011020;28;20076;-85
2024/02/13 11:44:12;;;;;;;4.40;2.60;;;6.80;75.80;;;;;;5079939;28;20166;-83
2024/02/13 11:46:39;;;;;;;5.63;3.30;;;6.90;76.60;;;;;;5079527;28;20080;-82
2024/02/13 11:49:09;;;;;;;5.88;2.75;;;6.90;76.50;;;;;;5072789;28;20086;-78
2024/02/13 11:51:38;;;;;;;4.35;3.15;;;6.90;76.80;;;;;;5011641;28;20038;-78
2024/02/13 11:54:05;;;;;;;6.35;3.45;;;7.00;76.20;;;;;;5078995;28;20025;-77
2024/02/13 11:56:31;;;;;;;5.53;2.90;;;7.10;76.30;;;;;;5078453;28;20041;-78
2024/02/13 11:59:07;;;;;;;6.22;3.40;;;7.20;77.00;;;;;;5003852;28;20532;-78
2024/02/13 12:01:37;;;;;;;3.42;2.60;;;7.30;76.70;;;;;;5011472;28;20034;-78
2024/02/13 12:04:15;;;;;;;4.43;2.80;;;7.20;75.60;;;;;;5011155;28;20026;-78
2024/02/13 12:06:45;;;;;;;5.20;3.03;;;7.00;75.00;;;;;;5011540;28;20028;-78
2024/02/13 12:09:15;;;;;;;7.60;3.65;;;6.90;76.40;;;;;;5008118;28;20396;-78
2024/02/13 12:11:41;;;;;;;6.40;3.30;;;6.80;76.90;;;;;;5001054;28;20038;-77
2024/02/13 12:14:09;;;;;;;6.90;4.97;;;6.70;78.60;;;;;;5011135;28;20033;-77
2024/02/13 12:16:35;;;;;;;6.38;3.80;;;6.80;80.60;;;;;;5079403;28;20022;-77
2024/02/13 12:19:08;;;;;;;4.68;3.28;;;6.80;81.10;;;;;;5009923;28;20138;-77
2024/02/13 12:21:34;;;;;;;4.78;3.78;;;6.70;79.30;;;;;;5077131;28;20077;-77
2024/02/13 12:24:01;;;;;;;6.25;3.85;;;6.70;79.30;;;;;;5077450;28;20032;-77
2024/02/13 12:26:28;;;;;;;9.32;4.28;;;6.60;80.80;;;;;;5010691;28;20030;-77
2024/02/13 12:28:57;;;;;;;7.63;3.80;;;6.60;80.60;;;;;;5006539;28;20029;-77
2024/02/13 12:31:24;;;;;;;7.15;4.03;;;6.60;81.70;;;;;;5073335;28;20045;-77
2024/02/13 12:34:06;;;;;;;6.53;4.10;;;6.70;82.90;;;;;;5009660;28;20016;-76
2024/02/13 12:36:35;;;;;;;6.93;4.10;;;6.60;84.10;;;;;;5078588;28;20053;-77
2024/02/13 12:39:25;;;;;;;7.05;4.88;;;6.60;86.10;;;;;;5089375;28;20051;-77
2024/02/13 12:41:51;;;;;;;8.23;5.82;;;6.50;85.30;;;;;;5092099;28;20062;-77
2024/02/13 12:44:23;;;;;;;6.82;4.68;;;6.40;89.20;;;;;;5092932;28;20032;-78
2024/02/13 12:46:51;;;;;;;10.35;5.72;;;6.40;92.50;;;;;;5093316;28;20117;-77